sensor_id;sensor_type;location;lat;lon;timestamp;P1;durP1;ratioP1;P2;durP2;ratioP2
39256;SDS011;67272;48.066;11.038;2023-04-26T12:52:58;5.15;;;3.10;;
39256;SDS011;67272;48.066;11.038;2023-04-26T12:55:25;2.75;;;2.55;;
39256;SDS011;67272;48.066;11.038;2023-04-26T12:57:51;2.85;;;2.65;;
39256;SDS011;67272;48.066;11.038;2023-04-26T13:00:17;4.30;;;2.90;;
39256;SDS011;67272;48.066;11.038;2023-04-26T13:02:45;4.13;;;2.83;;
39256;SDS011;67272;48.066;11.038;2023-04-26T13:05:12;2.67;;;2.47;;
39256;SDS011;67272;48.066;11.038;2023-04-26T13:07:39;2.78;;;2.50;;
39256;SDS011;67272;48.066;11.038;2023-04-26T13:10:05;3.70;;;2.58;;
39256;SDS011;67272;48.066;11.038;2023-04-26T13:12:32;3.67;;;2.90;;
39256;SDS011;67272;48.066;11.038;2023-04-26T13:14:59;3.00;;;2.47;;
39256;SDS011;67272;48.066;11.038;2023-04-26T13:17:25;2.90;;;2.70;;
39256;SDS011;67272;48.066;11.038;2023-04-26T13:19:51;2.53;;;2.30;;
39256;SDS011;67272;48.066;11.038;2023-04-26T13:22:18;2.78;;;2.40;;
39256;SDS011;67272;48.066;11.038;2023-04-26T13:24:45;2.60;;;2.40;;
39256;SDS011;67272;48.066;11.038;2023-04-26T13:27:11;2.67;;;2.30;;
39256;SDS011;67272;48.066;11.038;2023-04-26T13:29:37;3.50;;;2.67;;
39256;SDS011;67272;48.066;11.038;2023-04-26T13:32:04;2.60;;;2.40;;
39256;SDS011;67272;48.066;11.038;2023-04-26T13:34:32;3.78;;;2.70;;
39256;SDS011;67272;48.066;11.038;2023-04-26T13:36:59;2.92;;;2.60;;
39256;SDS011;67272;48.066;11.038;2023-04-26T13:39:26;3.13;;;2.83;;
39256;SDS011;67272;48.066;11.038;2023-04-26T13:41:54;2.80;;;2.60;;
39256;SDS011;67272;48.066;11.038;2023-04-26T13:44:20;4.28;;;2.47;;
39256;SDS011;67272;48.066;11.038;2023-04-26T13:46:47;3.05;;;2.72;;
39256;SDS011;67272;48.066;11.038;2023-04-26T13:49:13;3.22;;;2.30;;
39256;SDS011;67272;48.066;11.038;2023-04-26T13:51:39;2.95;;;2.35;;
39256;SDS011;67272;48.066;11.038;2023-04-26T13:54:06;3.75;;;2.70;;
39256;SDS011;67272;48.066;11.038;2023-04-26T13:56:32;2.60;;;2.40;;
39256;SDS011;67272;48.066;11.038;2023-04-26T13:58:59;2.75;;;2.55;;
39256;SDS011;67272;48.066;11.038;2023-04-26T14:01:27;3.35;;;2.70;;
39256;SDS011;67272;48.066;11.038;2023-04-26T14:03:54;2.80;;;2.60;;
39256;SDS011;67272;48.066;11.038;2023-04-26T14:06:20;2.83;;;2.55;;
39256;SDS011;67272;48.066;11.038;2023-04-26T14:08:47;3.30;;;2.80;;
39256;SDS011;67272;48.066;11.038;2023-04-26T14:11:13;2.63;;;2.35;;
39256;SDS011;67272;48.066;11.038;2023-04-26T14:13:39;2.60;;;2.40;;
39256;SDS011;67272;48.066;11.038;2023-04-26T14:16:06;3.55;;;2.80;;
39256;SDS011;67272;48.066;11.038;2023-04-26T14:18:33;2.67;;;2.47;;
39256;SDS011;67272;48.066;11.038;2023-04-26T14:21:00;2.67;;;2.33;;
39256;SDS011;67272;48.066;11.038;2023-04-26T14:23:26;2.95;;;2.67;;
39256;SDS011;67272;48.066;11.038;2023-04-26T14:25:52;2.50;;;2.30;;
39256;SDS011;67272;48.066;11.038;2023-04-26T14:28:19;3.22;;;2.28;;
39256;SDS011;67272;48.066;11.038;2023-04-26T14:30:45;2.83;;;2.53;;
39256;SDS011;67272;48.066;11.038;2023-04-26T14:33:14;3.22;;;2.75;;
39256;SDS011;67272;48.066;11.038;2023-04-26T14:35:41;2.47;;;2.28;;
39256;SDS011;67272;48.066;11.038;2023-04-26T14:38:07;2.50;;;2.30;;
39256;SDS011;67272;48.066;11.038;2023-04-26T14:40:35;3.30;;;2.70;;
39256;SDS011;67272;48.066;11.038;2023-04-26T14:43:01;3.70;;;2.53;;
39256;SDS011;67272;48.066;11.038;2023-04-26T14:45:28;4.15;;;2.70;;
39256;SDS011;67272;48.066;11.038;2023-04-26T14:47:58;2.80;;;2.60;;
39256;SDS011;67272;48.066;11.038;2023-04-26T14:50:25;3.40;;;2.70;;
39256;SDS011;67272;48.066;11.038;2023-04-26T14:52:52;2.65;;;2.45;;
39256;SDS011;67272;48.066;11.038;2023-04-26T14:55:18;2.67;;;2.38;;
39256;SDS011;67272;48.066;11.038;2023-04-26T14:57:48;2.42;;;2.22;;
39256;SDS011;67272;48.066;11.038;2023-04-26T15:00:15;2.30;;;2.10;;
39256;SDS011;67272;48.066;11.038;2023-04-26T15:02:41;3.60;;;2.30;;
39256;SDS011;67272;48.066;11.038;2023-04-26T15:05:08;2.80;;;2.60;;
39256;SDS011;67272;48.066;11.038;2023-04-26T15:07:35;3.17;;;2.50;;
39256;SDS011;67272;48.066;11.038;2023-04-26T15:10:02;2.80;;;2.50;;
39256;SDS011;67272;48.066;11.038;2023-04-26T15:12:29;3.03;;;2.47;;
39256;SDS011;67272;48.066;11.038;2023-04-26T15:14:55;2.70;;;2.25;;
39256;SDS011;67272;48.066;11.038;2023-04-26T15:17:22;2.92;;;2.60;;
39256;SDS011;67272;48.066;11.038;2023-04-26T15:19:48;2.80;;;2.60;;
39256;SDS011;67272;48.066;11.038;2023-04-26T15:22:14;3.15;;;2.30;;
39256;SDS011;67272;48.066;11.038;2023-04-26T15:24:41;2.40;;;2.30;;
39256;SDS011;67272;48.066;11.038;2023-04-26T15:27:07;3.35;;;2.47;;
39256;SDS011;67272;48.066;11.038;2023-04-26T15:29:34;2.85;;;2.53;;
39256;SDS011;67272;48.066;11.038;2023-04-26T15:32:02;3.40;;;2.28;;
39256;SDS011;67272;48.066;11.038;2023-04-26T15:34:29;2.53;;;2.33;;
39256;SDS011;67272;48.066;11.038;2023-04-26T15:37:03;2.60;;;2.22;;
39256;SDS011;67272;48.066;11.038;2023-04-26T15:39:29;2.17;;;1.98;;
39256;SDS011;67272;48.066;11.038;2023-04-26T15:41:56;3.13;;;2.17;;
39256;SDS011;67272;48.066;11.038;2023-04-26T15:44:23;2.95;;;2.33;;
39256;SDS011;67272;48.066;11.038;2023-04-26T15:46:49;2.45;;;2.20;;
39256;SDS011;67272;48.066;11.038;2023-04-26T15:49:15;2.83;;;2.20;;
39256;SDS011;67272;48.066;11.038;2023-04-26T15:51:42;3.25;;;1.92;;
39256;SDS011;67272;48.066;11.038;2023-04-26T15:54:08;2.75;;;2.40;;
39256;SDS011;67272;48.066;11.038;2023-04-26T15:56:34;2.60;;;2.40;;
39256;SDS011;67272;48.066;11.038;2023-04-26T15:59:00;2.17;;;1.98;;
39256;SDS011;67272;48.066;11.038;2023-04-26T16:01:27;2.60;;;2.40;;
39256;SDS011;67272;48.066;11.038;2023-04-26T16:03:53;2.40;;;2.20;;
39256;SDS011;67272;48.066;11.038;2023-04-26T16:06:19;2.20;;;2.00;;
39256;SDS011;67272;48.066;11.038;2023-04-26T16:08:45;2.70;;;2.50;;
39256;SDS011;67272;48.066;11.038;2023-04-26T16:11:12;3.05;;;2.50;;
39256;SDS011;67272;48.066;11.038;2023-04-26T16:13:38;2.72;;;2.50;;
39256;SDS011;67272;48.066;11.038;2023-04-26T16:16:07;3.15;;;2.70;;
39256;SDS011;67272;48.066;11.038;2023-04-26T16:18:35;2.28;;;2.17;;
39256;SDS011;67272;48.066;11.038;2023-04-26T16:21:06;2.40;;;2.20;;
39256;SDS011;67272;48.066;11.038;2023-04-26T16:23:34;2.67;;;2.15;;
39256;SDS011;67272;48.066;11.038;2023-04-26T16:26:00;2.97;;;2.50;;
39256;SDS011;67272;48.066;11.038;2023-04-26T16:28:26;2.45;;;2.20;;
39256;SDS011;67272;48.066;11.038;2023-04-26T16:30:53;3.92;;;2.20;;
39256;SDS011;67272;48.066;11.038;2023-04-26T16:33:20;2.53;;;2.28;;
39256;SDS011;67272;48.066;11.038;2023-04-26T16:35:49;3.42;;;2.38;;
39256;SDS011;67272;48.066;11.038;2023-04-26T16:38:22;2.53;;;2.33;;
39256;SDS011;67272;48.066;11.038;2023-04-26T16:40:54;2.30;;;2.10;;
39256;SDS011;67272;48.066;11.038;2023-04-26T16:43:31;3.92;;;2.53;;
39256;SDS011;67272;48.066;11.038;2023-04-26T16:46:05;5.05;;;2.53;;
39256;SDS011;67272;48.066;11.038;2023-04-26T16:48:36;2.60;;;2.40;;
39256;SDS011;67272;48.066;11.038;2023-04-26T16:51:04;2.70;;;2.50;;
39256;SDS011;67272;48.066;11.038;2023-04-26T16:53:31;3.28;;;2.30;;
39256;SDS011;67272;48.066;11.038;2023-04-26T16:55:57;2.85;;;2.50;;
39256;SDS011;67272;48.066;11.038;2023-04-26T16:58:24;4.60;;;3.15;;
39256;SDS011;67272;48.066;11.038;2023-04-26T17:00:50;2.47;;;2.28;;
39256;SDS011;67272;48.066;11.038;2023-04-26T17:03:17;2.75;;;2.50;;
39256;SDS011;67272;48.066;11.038;2023-04-26T17:05:44;2.65;;;2.33;;
39256;SDS011;67272;48.066;11.038;2023-04-26T17:08:17;3.67;;;2.60;;
39256;SDS011;67272;48.066;11.038;2023-04-26T17:10:44;2.63;;;2.35;;
39256;SDS011;67272;48.066;11.038;2023-04-26T17:13:10;2.55;;;2.35;;
39256;SDS011;67272;48.066;11.038;2023-04-26T17:15:38;2.30;;;2.10;;
39256;SDS011;67272;48.066;11.038;2023-04-26T17:18:05;3.00;;;2.60;;
39256;SDS011;67272;48.066;11.038;2023-04-26T17:20:32;3.28;;;2.55;;
39256;SDS011;67272;48.066;11.038;2023-04-26T17:22:59;2.80;;;2.30;;
39256;SDS011;67272;48.066;11.038;2023-04-26T17:25:25;3.20;;;2.40;;
39256;SDS011;67272;48.066;11.038;2023-04-26T17:27:52;3.75;;;2.30;;
39256;SDS011;67272;48.066;11.038;2023-04-26T17:30:19;2.50;;;2.30;;
39256;SDS011;67272;48.066;11.038;2023-04-26T17:32:45;3.33;;;2.50;;
39256;SDS011;67272;48.066;11.038;2023-04-26T17:35:13;2.50;;;2.30;;
39256;SDS011;67272;48.066;11.038;2023-04-26T17:37:39;2.50;;;2.30;;
39256;SDS011;67272;48.066;11.038;2023-04-26T17:40:06;2.20;;;2.10;;
39256;SDS011;67272;48.066;11.038;2023-04-26T17:42:33;2.42;;;2.22;;
39256;SDS011;67272;48.066;11.038;2023-04-26T17:44:59;2.50;;;2.30;;
39256;SDS011;67272;48.066;11.038;2023-04-26T17:47:26;2.75;;;2.55;;
39256;SDS011;67272;48.066;11.038;2023-04-26T17:49:53;5.05;;;2.35;;
39256;SDS011;67272;48.066;11.038;2023-04-26T17:52:19;2.45;;;2.13;;
39256;SDS011;67272;48.066;11.038;2023-04-26T17:54:46;3.15;;;2.40;;
39256;SDS011;67272;48.066;11.038;2023-04-26T17:57:12;3.67;;;2.47;;
39256;SDS011;67272;48.066;11.038;2023-04-26T17:59:41;2.85;;;2.25;;
39256;SDS011;67272;48.066;11.038;2023-04-26T18:02:07;2.40;;;2.20;;
39256;SDS011;67272;48.066;11.038;2023-04-26T18:04:34;2.47;;;2.25;;
39256;SDS011;67272;48.066;11.038;2023-04-26T18:07:00;3.47;;;2.63;;
39256;SDS011;67272;48.066;11.038;2023-04-26T18:09:29;3.00;;;2.57;;
39256;SDS011;67272;48.066;11.038;2023-04-26T18:11:55;2.70;;;2.50;;
39256;SDS011;67272;48.066;11.038;2023-04-26T18:14:21;3.10;;;2.80;;
39256;SDS011;67272;48.066;11.038;2023-04-26T18:16:49;2.63;;;2.43;;
39256;SDS011;67272;48.066;11.038;2023-04-26T18:19:15;2.53;;;2.30;;
39256;SDS011;67272;48.066;11.038;2023-04-26T18:21:41;2.73;;;2.40;;
39256;SDS011;67272;48.066;11.038;2023-04-26T18:24:07;2.37;;;2.17;;
39256;SDS011;67272;48.066;11.038;2023-04-26T18:26:34;3.10;;;2.80;;
39256;SDS011;67272;48.066;11.038;2023-04-26T18:29:00;2.80;;;2.60;;
39256;SDS011;67272;48.066;11.038;2023-04-26T18:31:27;4.97;;;3.63;;
39256;SDS011;67272;48.066;11.038;2023-04-26T18:33:56;3.23;;;2.97;;
39256;SDS011;67272;48.066;11.038;2023-04-26T18:36:31;2.80;;;2.60;;
39256;SDS011;67272;48.066;11.038;2023-04-26T18:38:57;3.17;;;2.73;;
39256;SDS011;67272;48.066;11.038;2023-04-26T18:41:24;11.27;;;8.00;;
39256;SDS011;67272;48.066;11.038;2023-04-26T18:43:50;11.70;;;8.30;;
39256;SDS011;67272;48.066;11.038;2023-04-26T18:46:17;9.97;;;6.47;;
39256;SDS011;67272;48.066;11.038;2023-04-26T18:48:44;7.35;;;5.45;;
39256;SDS011;67272;48.066;11.038;2023-04-26T18:51:10;5.37;;;4.83;;
39256;SDS011;67272;48.066;11.038;2023-04-26T18:53:43;5.77;;;4.30;;
39256;SDS011;67272;48.066;11.038;2023-04-26T18:56:09;5.20;;;3.77;;
39256;SDS011;67272;48.066;11.038;2023-04-26T18:58:35;3.80;;;3.40;;
39256;SDS011;67272;48.066;11.038;2023-04-26T19:01:01;4.23;;;3.17;;
39256;SDS011;67272;48.066;11.038;2023-04-26T19:03:28;4.43;;;3.80;;
39256;SDS011;67272;48.066;11.038;2023-04-26T19:05:54;3.30;;;3.00;;
39256;SDS011;67272;48.066;11.038;2023-04-26T19:08:20;3.43;;;3.13;;
39256;SDS011;67272;48.066;11.038;2023-04-26T19:10:48;3.70;;;3.33;;
39256;SDS011;67272;48.066;11.038;2023-04-26T19:13:14;3.50;;;3.20;;
39256;SDS011;67272;48.066;11.038;2023-04-26T19:15:40;3.30;;;3.00;;
39256;SDS011;67272;48.066;11.038;2023-04-26T19:18:06;5.17;;;3.37;;
39256;SDS011;67272;48.066;11.038;2023-04-26T19:20:32;4.90;;;3.40;;
39256;SDS011;67272;48.066;11.038;2023-04-26T19:22:59;3.83;;;3.53;;
39256;SDS011;67272;48.066;11.038;2023-04-26T19:25:25;4.47;;;3.90;;
39256;SDS011;67272;48.066;11.038;2023-04-26T19:27:53;4.97;;;4.00;;
39256;SDS011;67272;48.066;11.038;2023-04-26T19:30:19;5.17;;;3.60;;
39256;SDS011;67272;48.066;11.038;2023-04-26T19:32:46;5.17;;;4.77;;
39256;SDS011;67272;48.066;11.038;2023-04-26T19:35:12;5.27;;;4.63;;
39256;SDS011;67272;48.066;11.038;2023-04-26T19:37:38;6.53;;;4.83;;
39256;SDS011;67272;48.066;11.038;2023-04-26T19:40:05;5.17;;;4.40;;
39256;SDS011;67272;48.066;11.038;2023-04-26T19:42:31;4.63;;;4.23;;
39256;SDS011;67272;48.066;11.038;2023-04-26T19:44:58;6.57;;;4.40;;
39256;SDS011;67272;48.066;11.038;2023-04-26T19:47:24;4.37;;;3.97;;
39256;SDS011;67272;48.066;11.038;2023-04-26T19:49:53;3.90;;;3.50;;
39256;SDS011;67272;48.066;11.038;2023-04-26T19:52:21;4.63;;;3.80;;
39256;SDS011;67272;48.066;11.038;2023-04-26T19:54:54;3.53;;;3.23;;
39256;SDS011;67272;48.066;11.038;2023-04-26T19:57:20;4.73;;;2.97;;
39256;SDS011;67272;48.066;11.038;2023-04-26T19:59:47;4.73;;;3.20;;
39256;SDS011;67272;48.066;11.038;2023-04-26T20:02:13;4.93;;;3.90;;
39256;SDS011;67272;48.066;11.038;2023-04-26T20:04:39;3.53;;;3.23;;
39256;SDS011;67272;48.066;11.038;2023-04-26T20:07:12;3.80;;;3.50;;
39256;SDS011;67272;48.066;11.038;2023-04-26T20:09:38;4.60;;;3.87;;
39256;SDS011;67272;48.066;11.038;2023-04-26T20:12:05;4.57;;;3.80;;
39256;SDS011;67272;48.066;11.038;2023-04-26T20:14:31;4.33;;;3.73;;
39256;SDS011;67272;48.066;11.038;2023-04-26T20:17:01;5.30;;;3.50;;
39256;SDS011;67272;48.066;11.038;2023-04-26T20:19:28;3.50;;;3.17;;
39256;SDS011;67272;48.066;11.038;2023-04-26T20:21:57;3.63;;;3.30;;
39256;SDS011;67272;48.066;11.038;2023-04-26T20:24:33;3.33;;;3.03;;
39256;SDS011;67272;48.066;11.038;2023-04-26T20:26:59;3.43;;;3.10;;
39256;SDS011;67272;48.066;11.038;2023-04-26T20:29:32;4.00;;;3.60;;
39256;SDS011;67272;48.066;11.038;2023-04-26T20:31:58;3.67;;;3.20;;
39256;SDS011;67272;48.066;11.038;2023-04-26T20:34:24;4.30;;;3.77;;
39256;SDS011;67272;48.066;11.038;2023-04-26T20:36:54;4.13;;;3.80;;
39256;SDS011;67272;48.066;11.038;2023-04-26T20:39:20;4.50;;;3.63;;
39256;SDS011;67272;48.066;11.038;2023-04-26T20:41:49;4.40;;;3.70;;
39256;SDS011;67272;48.066;11.038;2023-04-26T20:44:16;6.43;;;3.63;;
39256;SDS011;67272;48.066;11.038;2023-04-26T20:46:42;4.63;;;3.47;;
39256;SDS011;67272;48.066;11.038;2023-04-26T20:49:09;3.80;;;3.40;;
39256;SDS011;67272;48.066;11.038;2023-04-26T20:51:38;5.20;;;3.37;;
39256;SDS011;67272;48.066;11.038;2023-04-26T20:54:05;5.73;;;4.47;;
39256;SDS011;67272;48.066;11.038;2023-04-26T20:56:32;5.33;;;3.70;;
39256;SDS011;67272;48.066;11.038;2023-04-26T20:58:58;4.73;;;3.70;;
39256;SDS011;67272;48.066;11.038;2023-04-26T21:01:28;3.53;;;3.23;;
39256;SDS011;67272;48.066;11.038;2023-04-26T21:03:54;4.50;;;4.03;;
39256;SDS011;67272;48.066;11.038;2023-04-26T21:06:21;4.30;;;3.47;;
39256;SDS011;67272;48.066;11.038;2023-04-26T21:08:47;5.33;;;3.60;;
39256;SDS011;67272;48.066;11.038;2023-04-26T21:11:20;5.83;;;3.70;;
39256;SDS011;67272;48.066;11.038;2023-04-26T21:13:49;6.73;;;3.37;;
39256;SDS011;67272;48.066;11.038;2023-04-26T21:16:18;4.37;;;3.67;;
39256;SDS011;67272;48.066;11.038;2023-04-26T21:18:44;4.20;;;3.37;;
39256;SDS011;67272;48.066;11.038;2023-04-26T21:21:17;4.10;;;3.40;;
39256;SDS011;67272;48.066;11.038;2023-04-26T21:23:44;4.00;;;3.60;;
39256;SDS011;67272;48.066;11.038;2023-04-26T21:26:10;4.07;;;3.63;;
39256;SDS011;67272;48.066;11.038;2023-04-26T21:28:40;3.93;;;3.43;;
39256;SDS011;67272;48.066;11.038;2023-04-26T21:31:07;5.47;;;3.70;;
39256;SDS011;67272;48.066;11.038;2023-04-26T21:33:34;5.10;;;3.50;;
39256;SDS011;67272;48.066;11.038;2023-04-26T21:36:03;5.33;;;4.00;;
39256;SDS011;67272;48.066;11.038;2023-04-26T21:38:36;3.93;;;3.63;;
39256;SDS011;67272;48.066;11.038;2023-04-26T21:41:03;4.90;;;3.43;;
39256;SDS011;67272;48.066;11.038;2023-04-26T21:43:32;4.90;;;3.30;;
39256;SDS011;67272;48.066;11.038;2023-04-26T21:46:01;3.87;;;3.50;;
39256;SDS011;67272;48.066;11.038;2023-04-26T21:48:27;4.82;;;3.60;;
39256;SDS011;67272;48.066;11.038;2023-04-26T21:50:54;3.53;;;3.23;;
39256;SDS011;67272;48.066;11.038;2023-04-26T21:53:21;4.13;;;3.20;;
39256;SDS011;67272;48.066;11.038;2023-04-26T21:55:59;4.03;;;3.33;;
39256;SDS011;67272;48.066;11.038;2023-04-26T21:58:26;3.10;;;2.80;;
39256;SDS011;67272;48.066;11.038;2023-04-26T22:03:37;3.60;;;3.30;;
39256;SDS011;67272;48.066;11.038;2023-04-26T22:06:07;4.33;;;3.93;;
39256;SDS011;67272;48.066;11.038;2023-04-26T22:08:34;5.17;;;3.17;;
39256;SDS011;67272;48.066;11.038;2023-04-26T22:11:07;4.33;;;3.53;;
39256;SDS011;67272;48.066;11.038;2023-04-26T22:13:33;3.83;;;3.40;;
39256;SDS011;67272;48.066;11.038;2023-04-26T22:16:00;3.67;;;3.37;;
39256;SDS011;67272;48.066;11.038;2023-04-26T22:18:35;3.93;;;3.30;;
39256;SDS011;67272;48.066;11.038;2023-04-26T22:21:07;4.80;;;3.80;;
39256;SDS011;67272;48.066;11.038;2023-04-26T22:23:33;5.33;;;3.93;;
39256;SDS011;67272;48.066;11.038;2023-04-26T22:26:00;3.87;;;3.50;;
39256;SDS011;67272;48.066;11.038;2023-04-26T22:28:26;3.70;;;3.40;;
39256;SDS011;67272;48.066;11.038;2023-04-26T22:30:53;4.37;;;3.97;;
39256;SDS011;67272;48.066;11.038;2023-04-26T22:33:25;4.83;;;3.90;;
39256;SDS011;67272;48.066;11.038;2023-04-26T22:35:57;4.80;;;3.90;;
39256;SDS011;67272;48.066;11.038;2023-04-26T22:38:24;4.67;;;4.10;;
39256;SDS011;67272;48.066;11.038;2023-04-26T22:40:50;4.73;;;3.47;;
39256;SDS011;67272;48.066;11.038;2023-04-26T22:43:17;4.13;;;3.73;;
39256;SDS011;67272;48.066;11.038;2023-04-26T22:45:46;4.57;;;4.13;;
39256;SDS011;67272;48.066;11.038;2023-04-26T22:48:12;4.43;;;3.87;;
39256;SDS011;67272;48.066;11.038;2023-04-26T22:50:39;4.70;;;4.17;;
39256;SDS011;67272;48.066;11.038;2023-04-26T22:53:05;4.50;;;4.10;;
39256;SDS011;67272;48.066;11.038;2023-04-26T22:55:38;5.40;;;4.13;;
39256;SDS011;67272;48.066;11.038;2023-04-26T22:58:07;5.03;;;3.80;;
39256;SDS011;67272;48.066;11.038;2023-04-26T23:00:36;4.00;;;3.70;;
39256;SDS011;67272;48.066;11.038;2023-04-26T23:03:05;4.23;;;3.63;;
39256;SDS011;67272;48.066;11.038;2023-04-26T23:05:32;5.20;;;4.27;;
39256;SDS011;67272;48.066;11.038;2023-04-26T23:07:58;4.40;;;4.00;;
39256;SDS011;67272;48.066;11.038;2023-04-26T23:10:24;4.53;;;4.10;;
39256;SDS011;67272;48.066;11.038;2023-04-26T23:12:54;4.53;;;4.13;;
39256;SDS011;67272;48.066;11.038;2023-04-26T23:15:20;5.57;;;4.50;;
39256;SDS011;67272;48.066;11.038;2023-04-26T23:17:52;5.43;;;4.30;;
39256;SDS011;67272;48.066;11.038;2023-04-26T23:20:22;4.87;;;4.37;;
39256;SDS011;67272;48.066;11.038;2023-04-26T23:22:54;4.20;;;3.80;;
39256;SDS011;67272;48.066;11.038;2023-04-26T23:25:20;7.13;;;4.00;;
39256;SDS011;67272;48.066;11.038;2023-04-26T23:27:47;4.43;;;4.00;;
39256;SDS011;67272;48.066;11.038;2023-04-26T23:30:16;4.00;;;3.60;;
39256;SDS011;67272;48.066;11.038;2023-04-26T23:32:43;5.95;;;4.72;;
39256;SDS011;67272;48.066;11.038;2023-04-26T23:35:12;4.13;;;3.73;;
39256;SDS011;67272;48.066;11.038;2023-04-26T23:37:38;4.47;;;3.80;;
39256;SDS011;67272;48.066;11.038;2023-04-26T23:40:05;4.97;;;3.80;;
39256;SDS011;67272;48.066;11.038;2023-04-26T23:42:33;5.73;;;4.40;;
39256;SDS011;67272;48.066;11.038;2023-04-26T23:45:06;6.13;;;4.23;;
39256;SDS011;67272;48.066;11.038;2023-04-26T23:47:33;4.80;;;4.13;;
39256;SDS011;67272;48.066;11.038;2023-04-26T23:49:59;5.20;;;4.70;;
39256;SDS011;67272;48.066;11.038;2023-04-26T23:52:26;4.63;;;3.80;;
39256;SDS011;67272;48.066;11.038;2023-04-26T23:54:52;5.03;;;3.90;;
39256;SDS011;67272;48.066;11.038;2023-04-26T23:57:18;4.53;;;4.07;;
39256;SDS011;67272;48.066;11.038;2023-04-26T23:59:45;4.67;;;3.80;;
